Time;durP1;ratioP1;P1;durP2;ratioP2;P2;SDS_P1;SDS_P2;PMS_P1;PMS_P2;Temp;Humidity;BMP_temperature;BMP_pressure;BME280_temperature;BME280_humidity;BME280_pressure;Samples;Min_cycle;Max_cycle;Signal;HPM_P1;HPM_P2
2021/10/19 00:00:44;;;;;;;18.00;9.93;;;;;;;7.72;85.95;98782.47;4988215;28;20396;-59
2021/10/19 00:03:10;;;;;;;23.52;12.75;;;;;;;7.53;87.07;98779.34;4988403;28;20037;-58
2021/10/19 00:05:35;;;;;;;19.80;10.82;;;;;;;7.87;85.89;98775.31;4987818;28;20087;-57
2021/10/19 00:08:01;;;;;;;23.55;12.63;;;;;;;7.45;85.92;98777.72;4988031;28;20117;-57
2021/10/19 00:10:27;;;;;;;22.30;12.02;;;;;;;7.60;85.02;98776.63;4987608;28;20430;-58
2021/10/19 00:12:52;;;;;;;19.95;11.27;;;;;;;7.38;85.73;98782.16;4988314;28;20041;-57
2021/10/19 00:15:18;;;;;;;25.80;15.00;;;;;;;7.08;86.69;98786.09;4987332;28;20049;-58
2021/10/19 00:17:45;;;;;;;27.42;14.85;;;;;;;6.74;88.99;98786.53;4990296;28;20022;-58
2021/10/19 00:20:13;;;;;;;29.10;14.43;;;;;;;6.54;90.13;98789.34;4990909;28;20022;-58
2021/10/19 00:22:39;;;;;;;25.83;14.23;;;;;;;6.44;90.67;98785.19;4993314;28;20113;-58
2021/10/19 00:25:05;;;;;;;25.55;14.27;;;;;;;6.43;89.47;98783.44;4990769;28;20062;-59
2021/10/19 00:27:34;;;;;;;27.05;14.82;;;;;;;6.32;90.25;98787.03;4989967;28;20050;-59
2021/10/19 00:30:03;;;;;;;27.95;14.45;;;;;;;6.37;90.00;98774.88;4990634;28;20113;-59
2021/10/19 00:32:28;;;;;;;26.85;14.23;;;;;;;6.26;90.31;98765.50;4988638;28;20043;-58
2021/10/19 00:34:54;;;;;;;23.92;13.07;;;;;;;6.81;89.07;98769.16;4989261;28;20033;-58
2021/10/19 00:37:19;;;;;;;27.58;13.43;;;;;;;6.85;88.02;98763.03;4991226;28;20040;-57
2021/10/19 00:39:45;;;;;;;25.70;12.93;;;;;;;6.90;87.90;98764.69;4991443;28;20404;-58
2021/10/19 00:42:10;;;;;;;24.23;12.95;;;;;;;6.89;87.92;98763.00;4990673;28;20154;-58
2021/10/19 00:44:35;;;;;;;27.27;14.60;;;;;;;6.82;88.85;98760.47;4989809;28;20029;-57
2021/10/19 00:47:01;;;;;;;29.23;14.23;;;;;;;6.91;89.34;98761.22;4991712;28;20042;-58
2021/10/19 00:49:27;;;;;;;24.38;12.98;;;;;;;7.17;86.99;98759.13;4991993;28;20590;-57
2021/10/19 00:51:53;;;;;;;19.55;10.68;;;;;;;7.04;87.57;98761.03;4989680;28;20630;-60
2021/10/19 00:54:24;;;;;;;25.88;13.77;;;;;;;7.05;87.98;98763.63;4991093;28;20169;-60
2021/10/19 00:56:52;;;;;;;29.35;14.13;;;;;;;7.06;87.69;98761.91;4990052;28;20297;-61
2021/10/19 00:59:18;;;;;;;24.02;12.65;;;;;;;7.07;87.73;98759.25;4998352;28;20026;-60
2021/10/19 01:01:44;;;;;;;30.13;14.43;;;;;;;6.98;87.64;98751.59;4989889;28;20045;-59
2021/10/19 01:04:09;;;;;;;24.77;13.25;;;;;;;6.97;88.56;98754.25;4991431;28;20494;-60
2021/10/19 01:06:35;;;;;;;27.80;14.45;;;;;;;6.75;89.27;98747.63;4989478;28;20038;-61
2021/10/19 01:09:00;;;;;;;29.20;14.40;;;;;;;6.83;88.05;98747.50;4989418;28;20022;-60
2021/10/19 01:11:26;;;;;;;19.67;10.50;;;;;;;6.95;88.99;98733.53;4987641;28;20046;-60
2021/10/19 01:13:51;;;;;;;21.80;10.95;;;;;;;7.14;87.28;98737.53;4990689;28;20105;-60
2021/10/19 01:16:17;;;;;;;26.35;13.68;;;;;;;6.85;87.47;98731.94;4987944;28;20466;-58
2021/10/19 01:18:43;;;;;;;27.52;14.05;;;;;;;6.74;88.94;98727.72;4990613;28;20032;-59
2021/10/19 01:21:09;;;;;;;29.65;14.05;;;;;;;6.40;89.71;98726.50;4989716;28;20045;-59
2021/10/19 01:23:36;;;;;;;27.58;14.27;;;;;;;6.42;89.72;98727.31;4990397;28;20034;-59
2021/10/19 01:26:06;;;;;;;27.95;13.40;;;;;;;6.61;90.07;98726.19;4989920;28;20115;-58
2021/10/19 01:28:33;;;;;;;26.02;12.40;;;;;;;7.04;87.84;98725.59;4989201;28;20034;-59
2021/10/19 01:31:00;;;;;;;22.58;12.43;;;;;;;7.14;86.51;98727.16;4998022;28;20548;-59
2021/10/19 01:33:26;;;;;;;22.45;12.70;;;;;;;7.02;88.22;98732.56;4991120;28;20033;-58
2021/10/19 01:35:52;;;;;;;19.58;10.20;;;;;;;7.37;85.47;98744.13;5004575;28;20534;-59
2021/10/19 01:38:28;;;;;;;32.10;13.80;;;;;;;7.05;85.79;98748.06;4989013;28;20030;-59
2021/10/19 01:40:55;;;;;;;25.75;13.05;;;;;;;6.97;87.39;98744.72;4989140;28;20061;-59
2021/10/19 01:43:22;;;;;;;22.88;12.13;;;;;;;6.78;87.56;98743.25;4990733;28;20061;-59
2021/10/19 01:45:57;;;;;;;25.33;12.85;;;;;;;6.79;88.33;98745.84;4990142;28;20089;-60
2021/10/19 01:48:22;;;;;;;26.95;13.98;;;;;;;6.65;88.37;98738.22;4989715;28;20579;-58
2021/10/19 01:50:48;;;;;;;23.45;12.68;;;;;;;7.22;86.65;98739.16;4992545;28;20034;-60
2021/10/19 01:53:13;;;;;;;24.30;12.25;;;;;;;7.09;85.90;98739.34;4990822;28;20085;-60
2021/10/19 01:55:40;;;;;;;22.42;11.82;;;;;;;7.33;85.32;98750.22;4990115;28;20030;-58
2021/10/19 01:58:06;;;;;;;22.15;11.65;;;;;;;7.04;87.59;98746.34;4990156;28;20561;-58
2021/10/19 02:00:32;;;;;;;27.58;13.80;;;;;;;6.70;87.10;98752.00;4989770;28;20038;-59
2021/10/19 02:02:58;;;;;;;27.50;14.10;;;;;;;6.42;88.05;98750.66;4991583;28;20034;-60
2021/10/19 02:05:23;;;;;;;25.52;11.98;;;;;;;6.55;88.87;98757.38;4989096;28;20042;-59
2021/10/19 02:07:48;;;;;;;26.42;12.38;;;;;;;6.34;90.07;98763.69;4991451;28;20033;-59
2021/10/19 02:10:14;;;;;;;25.17;12.95;;;;;;;6.37;87.40;98756.72;4991686;28;20034;-59
2021/10/19 02:12:40;;;;;;;16.05;8.93;;;;;;;6.84;86.61;98756.16;4989483;28;20088;-57
2021/10/19 02:15:07;;;;;;;25.35;13.02;;;;;;;6.20;87.79;98740.53;4989470;28;20526;-58
2021/10/19 02:17:33;;;;;;;25.75;13.63;;;;;;;6.74;87.10;98742.44;4989920;28;20026;-60
2021/10/19 02:20:01;;;;;;;26.13;13.27;;;;;;;6.84;87.45;98725.88;4989621;28;20065;-58
2021/10/19 02:22:28;;;;;;;24.70;13.25;;;;;;;6.77;90.14;98723.41;4989229;28;20901;-59
2021/10/19 02:24:54;;;;;;;26.00;13.82;;;;;;;6.78;86.15;98720.78;4990152;28;20030;-58
2021/10/19 02:27:19;;;;;;;22.10;12.63;;;;;;;6.90;86.35;98711.97;4990841;28;20038;-58
2021/10/19 02:29:45;;;;;;;28.95;14.32;;;;;;;6.71;87.01;98709.66;4990873;28;20026;-58
2021/10/19 02:32:10;;;;;;;24.80;12.38;;;;;;;6.92;87.30;98720.59;4990683;28;20087;-60
2021/10/19 02:34:35;;;;;;;29.77;15.18;;;;;;;6.13;88.76;98719.00;4987694;28;20396;-58
2021/10/19 02:37:01;;;;;;;30.13;14.45;;;;;;;6.28;90.15;98723.16;4988890;28;20037;-58
2021/10/19 02:39:27;;;;;;;31.17;14.30;;;;;;;6.59;87.29;98724.50;4988504;28;20036;-59
2021/10/19 02:41:52;;;;;;;27.70;13.77;;;;;;;6.25;87.73;98723.22;4989047;28;20037;-58
2021/10/19 02:44:18;;;;;;;27.48;14.38;;;;;;;6.24;89.59;98718.88;4987959;28;20057;-58
2021/10/19 02:46:43;;;;;;;25.67;12.95;;;;;;;6.05;89.37;98725.19;4989294;28;20049;-58
2021/10/19 02:49:09;;;;;;;31.55;13.00;;;;;;;5.75;90.13;98721.97;4989713;28;20044;-59
2021/10/19 02:51:34;;;;;;;25.90;12.38;;;;;;;6.63;88.61;98719.25;4987608;28;20428;-60
2021/10/19 02:53:59;;;;;;;24.33;13.30;;;;;;;6.50;88.17;98712.53;4988305;28;20026;-58
2021/10/19 02:56:25;;;;;;;29.10;13.30;;;;;;;6.68;87.90;98717.47;4987540;28;20042;-59
2021/10/19 02:58:50;;;;;;;28.38;13.90;;;;;;;6.21;89.11;98716.31;4989320;28;20034;-58
2021/10/19 03:01:16;;;;;;;24.85;12.73;;;;;;;6.55;88.47;98721.09;4986939;28;20042;-58
2021/10/19 03:03:41;;;;;;;23.50;12.23;;;;;;;6.80;88.39;98725.94;4989648;28;20038;-58
2021/10/19 03:06:07;;;;;;;21.02;10.35;;;;;;;7.13;86.60;98733.25;4990143;28;20034;-59
2021/10/19 03:08:32;;;;;;;18.20;9.32;;;;;;;7.31;87.42;98739.00;4989503;28;20108;-58
2021/10/19 03:10:58;;;;;;;25.05;13.13;;;;;;;7.19;87.47;98734.03;4988267;28;20049;-57
2021/10/19 03:13:28;;;;;;;28.17;14.13;;;;;;;6.70;87.23;98731.25;4988612;28;20018;-61
2021/10/19 03:15:54;;;;;;;29.30;14.55;;;;;;;6.80;87.87;98738.91;4988712;28;21502;-61
2021/10/19 03:18:20;;;;;;;30.23;13.95;;;;;;;7.07;88.63;98730.72;4987970;28;20173;-57
2021/10/19 03:20:45;;;;;;;25.88;12.55;;;;;;;7.30;88.07;98732.97;4987741;28;20053;-59
2021/10/19 03:23:10;;;;;;;29.35;14.85;;;;;;;6.86;87.86;98721.53;4989577;28;20112;-58
2021/10/19 03:25:36;;;;;;;32.38;14.77;;;;;;;7.19;88.76;98721.06;4990567;28;20067;-58
2021/10/19 03:28:01;;;;;;;31.92;15.10;;;;;;;7.08;86.80;98721.22;4988253;28;20145;-58
2021/10/19 03:30:27;;;;;;;23.73;11.60;;;;;;;7.68;86.86;98733.19;4988047;28;20515;-58
2021/10/19 03:32:52;;;;;;;27.88;12.75;;;;;;;7.52;86.14;98749.06;4988698;28;20045;-57
2021/10/19 03:35:17;;;;;;;28.15;14.80;;;;;;;7.07;86.33;98743.69;4988423;28;20042;-59
2021/10/19 03:37:43;;;;;;;30.20;15.38;;;;;;;7.17;87.84;98747.03;4986355;28;20044;-59
2021/10/19 03:40:09;;;;;;;31.08;15.50;;;;;;;6.82;88.90;98734.56;4986674;28;20030;-58
2021/10/19 03:42:38;;;;;;;22.48;12.55;;;;;;;7.23;87.66;98741.72;4988648;28;20026;-58
2021/10/19 03:45:04;;;;;;;32.90;15.70;;;;;;;7.36;87.35;98734.59;4988258;28;20083;-59
2021/10/19 03:47:30;;;;;;;26.23;13.55;;;;;;;7.27;88.39;98732.16;4989850;28;20088;-58
2021/10/19 03:49:55;;;;;;;31.27;14.35;;;;;;;7.38;88.56;98740.63;4989063;28;20022;-58
2021/10/19 03:52:21;;;;;;;41.35;18.63;;;;;;;7.10;87.02;98730.69;4987572;28;20045;-57
2021/10/19 03:54:46;;;;;;;27.92;14.93;;;;;;;6.81;88.38;98723.31;4987676;28;20084;-59
2021/10/19 03:57:11;;;;;;;33.65;16.55;;;;;;;7.28;86.51;98728.69;4986425;28;20034;-58
2021/10/19 03:59:37;;;;;;;24.67;13.13;;;;;;;7.69;86.17;98729.72;4987773;28;20347;-58
2021/10/19 04:02:02;;;;;;;30.33;15.38;;;;;;;7.32;86.17;98740.75;4989034;28;20046;-57
2021/10/19 04:04:27;;;;;;;28.67;15.00;;;;;;;7.01;87.44;98736.00;4988865;28;20084;-57
2021/10/19 04:06:53;;;;;;;29.25;15.77;;;;;;;6.98;87.97;98741.22;4988706;28;20066;-58
2021/10/19 04:09:19;;;;;;;21.92;10.75;;;;;;;7.54;87.12;98733.44;4990851;28;20041;-58
2021/10/19 04:11:44;;;;;;;30.33;15.02;;;;;;;7.19;86.01;98740.06;4990022;28;20111;-57
2021/10/19 04:14:10;;;;;;;30.10;14.95;;;;;;;7.08;87.60;98737.63;4990851;28;20026;-59
2021/10/19 04:16:35;;;;;;;31.30;14.30;;;;;;;6.40;90.97;98734.28;4987994;28;20030;-58
2021/10/19 04:19:01;;;;;;;24.30;12.10;;;;;;;6.88;90.59;98726.69;4990155;28;20454;-58
2021/10/19 04:21:27;;;;;;;26.20;14.25;;;;;;;6.79;88.43;98722.50;4987636;28;20866;-59
2021/10/19 04:23:52;;;;;;;22.63;11.38;;;;;;;7.29;88.00;98730.41;4989209;28;20488;-59
2021/10/19 04:26:18;;;;;;;25.83;14.02;;;;;;;7.45;86.95;98726.66;4987721;28;20045;-58
2021/10/19 04:28:45;;;;;;;24.20;12.55;;;;;;;7.24;87.68;98720.09;4988755;28;20026;-58
2021/10/19 04:31:11;;;;;;;27.40;13.95;;;;;;;6.78;88.67;98707.81;4986004;28;20129;-58
2021/10/19 04:33:36;;;;;;;29.00;14.68;;;;;;;6.71;90.20;98717.44;4989915;28;20057;-59
2021/10/19 04:36:04;;;;;;;27.73;14.88;;;;;;;7.16;89.01;98702.94;4989832;28;20077;-58
2021/10/19 04:38:34;;;;;;;31.83;13.93;;;;;;;7.07;88.53;98702.19;4989582;28;20607;-60
2021/10/19 04:41:00;;;;;;;27.70;14.38;;;;;;;6.88;89.01;98703.38;4984823;28;20046;-59
2021/10/19 04:43:25;;;;;;;27.65;13.60;;;;;;;7.26;88.45;98714.88;4989861;28;20025;-58
2021/10/19 04:45:53;;;;;;;27.83;14.43;;;;;;;7.02;88.26;98717.00;4989811;28;20034;-57
2021/10/19 04:48:19;;;;;;;31.48;15.10;;;;;;;6.71;89.93;98709.66;4989279;28;20026;-57
2021/10/19 04:50:45;;;;;;;29.45;14.02;;;;;;;7.28;87.95;98697.56;4995992;28;20066;-58
2021/10/19 04:53:10;;;;;;;32.47;15.25;;;;;;;7.00;88.20;98703.16;4990416;28;20026;-59
2021/10/19 04:55:36;;;;;;;31.27;15.30;;;;;;;6.52;91.03;98696.06;4989630;28;20048;-57
2021/10/19 04:58:01;;;;;;;28.30;14.30;;;;;;;6.97;89.43;98695.44;4989368;28;20022;-59
2021/10/19 05:00:26;;;;;;;28.60;14.38;;;;;;;6.97;88.59;98695.44;4986810;28;20459;-60
2021/10/19 05:02:52;;;;;;;32.40;15.15;;;;;;;6.57;90.47;98694.28;4987615;28;20017;-61
2021/10/19 05:05:18;;;;;;;32.80;14.93;;;;;;;7.03;88.93;98697.94;4994047;28;20039;-59
2021/10/19 05:07:44;;;;;;;30.58;14.70;;;;;;;7.06;87.96;98691.84;4993176;28;20079;-58
2021/10/19 05:10:10;;;;;;;25.70;12.65;;;;;;;7.30;87.50;98675.88;4995202;28;20034;-57
2021/10/19 05:12:35;;;;;;;34.17;14.77;;;;;;;7.18;88.41;98683.00;4991557;28;20486;-58
2021/10/19 05:15:01;;;;;;;28.77;14.82;;;;;;;7.18;88.28;98694.22;4992789;28;20029;-58
2021/10/19 05:17:27;;;;;;;32.25;15.10;;;;;;;6.49;89.15;98692.69;5002022;28;20039;-59
2021/10/19 05:19:54;;;;;;;33.75;15.10;;;;;;;6.21;92.75;98687.81;4994352;28;20045;-59
2021/10/19 05:22:19;;;;;;;22.77;11.80;;;;;;;7.27;88.32;98685.44;4993520;28;21025;-58
2021/10/19 05:24:45;;;;;;;23.92;11.85;;;;;;;7.47;87.86;98679.91;4994317;28;20480;-58
2021/10/19 05:27:10;;;;;;;29.40;14.65;;;;;;;7.35;87.23;98693.94;4992334;28;20041;-60
2021/10/19 05:29:35;;;;;;;34.45;15.63;;;;;;;7.99;90.44;98704.06;4993314;28;20030;-60
2021/10/19 05:32:01;;;;;;;32.05;15.38;;;;;;;7.20;89.54;98712.38;4991883;28;20045;-59
2021/10/19 05:34:26;;;;;;;34.17;15.32;;;;;;;7.16;88.98;98708.97;4992026;28;20137;-60
2021/10/19 05:36:51;;;;;;;34.42;16.58;;;;;;;7.13;90.33;98709.91;4993049;28;20041;-59
2021/10/19 05:39:18;;;;;;;32.97;15.75;;;;;;;7.28;90.25;98708.78;4993407;28;20836;-59
2021/10/19 05:41:44;;;;;;;28.50;14.70;;;;;;;6.97;93.26;98708.41;4993671;28;20038;-61
2021/10/19 05:44:09;;;;;;;34.38;16.08;;;;;;;7.36;89.26;98703.47;4992720;28;20089;-59
2021/10/19 05:46:34;;;;;;;32.35;15.70;;;;;;;6.93;89.37;98711.94;4991574;28;20042;-61
2021/10/19 05:49:00;;;;;;;34.83;15.48;;;;;;;6.96;92.10;98711.88;4991189;28;20037;-60
2021/10/19 05:51:25;;;;;;;30.25;15.05;;;;;;;7.18;90.67;98716.75;4990227;28;20049;-59
2021/10/19 05:53:50;;;;;;;32.83;15.82;;;;;;;6.88;90.93;98706.81;4992473;28;20025;-60
2021/10/19 05:56:16;;;;;;;38.00;17.30;;;;;;;7.42;90.43;98705.09;4994125;28;20042;-60
2021/10/19 05:58:41;;;;;;;39.70;17.77;;;;;;;7.47;89.02;98700.69;4993681;28;20032;-61
2021/10/19 06:01:07;;;;;;;35.83;16.42;;;;;;;7.55;88.81;98703.16;4991235;28;20470;-60
2021/10/19 06:03:32;;;;;;;35.30;16.10;;;;;;;7.70;90.02;98710.66;4992628;28;20018;-62
2021/10/19 06:05:58;;;;;;;38.70;15.70;;;;;;;8.05;89.64;98710.00;4993564;28;20629;-61
2021/10/19 06:08:23;;;;;;;35.47;16.58;;;;;;;7.82;89.72;98702.66;4992018;28;20035;-59
2021/10/19 06:10:48;;;;;;;33.70;16.70;;;;;;;7.60;89.44;98701.34;4991841;28;20100;-62
2021/10/19 06:13:15;;;;;;;34.22;15.80;;;;;;;8.04;90.26;98710.88;4991015;28;20037;-61
2021/10/19 06:15:42;;;;;;;35.67;17.35;;;;;;;8.09;89.20;98708.22;4993360;28;20038;-60
2021/10/19 06:18:07;;;;;;;32.05;16.42;;;;;;;8.17;87.77;98706.31;4991317;28;20050;-60
2021/10/19 06:20:33;;;;;;;33.90;16.20;;;;;;;8.27;88.54;98702.66;4990338;28;20068;-60
2021/10/19 06:22:58;;;;;;;32.47;16.10;;;;;;;8.40;86.64;98717.97;4993731;28;20113;-61
2021/10/19 06:25:24;;;;;;;31.05;16.20;;;;;;;7.84;89.01;98713.00;4993267;28;20038;-62
2021/10/19 06:27:49;;;;;;;32.08;15.45;;;;;;;7.60;90.49;98714.31;4991936;28;20025;-61
2021/10/19 06:30:14;;;;;;;37.97;16.17;;;;;;;8.41;92.16;98710.16;4992164;28;20069;-62
2021/10/19 06:32:40;;;;;;;30.88;16.17;;;;;;;8.19;86.93;98712.31;4994105;28;20080;-61
2021/10/19 06:35:08;;;;;;;30.15;15.23;;;;;;;8.47;88.41;98717.88;4993924;28;20701;-62
2021/10/19 06:37:33;;;;;;;31.15;15.10;;;;;;;8.72;88.90;98721.69;4991365;28;20096;-60
2021/10/19 06:39:59;;;;;;;28.65;15.68;;;;;;;8.52;86.69;98722.94;4992400;28;20311;-62
2021/10/19 06:42:24;;;;;;;34.42;16.30;;;;;;;8.37;88.32;98728.44;4990316;28;20034;-63
2021/10/19 06:44:50;;;;;;;30.33;14.88;;;;;;;8.09;90.78;98731.59;4990493;28;20023;-62
2021/10/19 06:47:15;;;;;;;28.08;14.60;;;;;;;8.36;87.79;98731.94;4990724;28;20050;-63
2021/10/19 06:49:41;;;;;;;31.70;14.85;;;;;;;8.70;92.76;98728.66;4991576;28;20041;-62
2021/10/19 06:52:06;;;;;;;33.05;17.33;;;;;;;8.30;88.32;98720.75;4990206;28;20044;-60
2021/10/19 06:54:31;;;;;;;33.90;16.23;;;;;;;8.71;89.72;98730.34;4991795;28;20127;-59
2021/10/19 06:56:57;;;;;;;30.48;16.58;;;;;;;8.78;89.54;98750.16;4990883;28;20046;-60
2021/10/19 06:59:22;;;;;;;32.20;16.00;;;;;;;8.95;88.83;98753.25;4991425;28;20045;-62
2021/10/19 07:01:47;;;;;;;32.63;16.85;;;;;;;9.13;87.54;98761.50;4990539;28;20122;-59
2021/10/19 07:04:13;;;;;;;32.03;17.05;;;;;;;8.58;87.18;98768.78;4993686;28;20100;-60
2021/10/19 07:06:38;;;;;;;34.92;17.48;;;;;;;9.33;86.73;98769.72;4988703;28;20045;-63
2021/10/19 07:09:03;;;;;;;30.42;16.60;;;;;;;8.83;87.37;98769.13;4990518;28;20035;-61
2021/10/19 07:11:33;;;;;;;28.70;15.90;;;;;;;9.04;86.49;98770.38;4991243;28;20083;-60
2021/10/19 07:13:58;;;;;;;29.42;16.38;;;;;;;9.01;88.44;98773.06;4991098;28;20034;-61
2021/10/19 07:16:24;;;;;;;30.25;16.52;;;;;;;8.68;89.17;98771.16;4991806;28;20034;-61
2021/10/19 07:18:49;;;;;;;31.08;15.98;;;;;;;8.94;88.96;98769.75;4990982;28;20560;-61
2021/10/19 07:21:14;;;;;;;31.45;16.17;;;;;;;9.59;87.27;98778.66;4990925;28;20121;-62
2021/10/19 07:23:40;;;;;;;30.92;15.57;;;;;;;9.62;88.29;98775.97;4992034;28;20038;-60
2021/10/19 07:26:05;;;;;;;33.38;17.20;;;;;;;9.95;86.10;98778.63;4989668;28;20484;-62
2021/10/19 07:28:31;;;;;;;28.40;14.60;;;;;;;9.81;89.06;98769.41;4989051;28;20468;-61
2021/10/19 07:30:56;;;;;;;30.23;15.40;;;;;;;9.93;86.73;98780.41;4989547;28;20100;-59
2021/10/19 07:33:21;;;;;;;29.25;15.13;;;;;;;9.94;84.76;98776.91;4991155;28;20030;-60
2021/10/19 07:35:47;;;;;;;26.70;15.23;;;;;;;10.05;84.41;98769.66;4989949;28;20030;-61
2021/10/19 07:38:13;;;;;;;30.13;15.80;;;;;;;10.01;87.59;98768.03;4992426;28;20436;-61
2021/10/19 07:40:38;;;;;;;28.50;14.68;;;;;;;10.26;87.01;98762.16;4989998;28;20046;-61
2021/10/19 07:43:04;;;;;;;25.80;14.50;;;;;;;9.93;86.98;98760.41;4991888;28;20022;-59
2021/10/19 07:45:30;;;;;;;26.48;15.15;;;;;;;9.96;87.50;98764.69;4991091;28;20042;-62
2021/10/19 07:47:59;;;;;;;29.30;14.05;;;;;;;10.00;85.28;98776.75;4991812;28;20818;-59
2021/10/19 07:50:24;;;;;;;30.05;14.48;;;;;;;9.93;86.88;98772.59;4989716;28;21220;-59
2021/10/19 07:52:51;;;;;;;28.98;15.35;;;;;;;10.06;88.29;98776.59;4992259;28;20056;-60
2021/10/19 07:55:18;;;;;;;24.60;13.70;;;;;;;10.08;86.61;98780.00;4988676;28;20037;-60
2021/10/19 07:57:47;;;;;;;27.33;15.13;;;;;;;10.51;88.16;98773.66;4990472;28;20030;-61
2021/10/19 08:00:14;;;;;;;24.75;13.45;;;;;;;11.10;88.90;98769.31;4991611;28;20099;-62
2021/10/19 08:02:42;;;;;;;21.33;12.07;;;;;;;11.38;86.82;98767.53;4990554;28;20403;-61
2021/10/19 08:05:14;;;;;;;21.48;11.80;;;;;;;11.07;88.76;98772.88;4989954;28;20034;-60
2021/10/19 08:07:49;;;;;;;24.88;12.13;;;;;;;11.22;86.15;98778.53;4988908;28;20022;-62
2021/10/19 08:10:20;;;;;;;20.40;10.75;;;;;;;11.25;84.66;98768.84;4991661;28;20563;-61
2021/10/19 08:12:46;;;;;;;18.33;10.80;;;;;;;11.64;86.47;98768.47;4991652;28;20033;-61
2021/10/19 08:15:13;;;;;;;19.02;10.88;;;;;;;12.01;85.56;98769.84;4989440;28;20035;-62
2021/10/19 08:17:40;;;;;;;17.67;9.95;;;;;;;12.01;85.56;98761.16;4992176;28;20054;-61
2021/10/19 08:20:06;;;;;;;18.33;9.93;;;;;;;12.10;86.03;98756.47;4989018;28;20030;-62
2021/10/19 08:22:33;;;;;;;18.90;10.93;;;;;;;11.90;84.84;98749.31;4991628;28;20042;-60
2021/10/19 08:25:01;;;;;;;15.77;10.05;;;;;;;12.21;83.05;98758.72;4991533;28;20035;-62
2021/10/19 08:27:27;;;;;;;16.95;10.57;;;;;;;11.87;83.95;98766.81;4989627;28;20042;-61
2021/10/19 08:29:52;;;;;;;17.23;10.57;;;;;;;11.89;86.36;98767.63;4988074;28;20108;-62
2021/10/19 08:32:18;;;;;;;17.38;8.40;;;;;;;12.11;88.09;98762.53;4989965;28;20045;-63
2021/10/19 08:34:44;;;;;;;16.63;9.00;;;;;;;12.12;86.61;98770.34;4989563;28;20038;-62
2021/10/19 08:37:09;;;;;;;17.10;10.80;;;;;;;12.46;85.07;98758.69;4990893;28;20042;-60
2021/10/19 08:39:35;;;;;;;16.20;9.60;;;;;;;12.10;85.23;98761.69;4994895;28;20029;-62
2021/10/19 08:42:00;;;;;;;15.60;10.27;;;;;;;12.14;87.85;98755.44;4994027;28;20952;-63
2021/10/19 08:44:27;;;;;;;15.27;9.02;;;;;;;12.22;88.15;98754.31;4993154;28;20022;-60
2021/10/19 08:46:53;;;;;;;16.85;10.10;;;;;;;12.85;86.36;98749.41;4995703;28;20029;-61
2021/10/19 08:49:18;;;;;;;17.05;9.68;;;;;;;12.63;85.57;98749.38;4994465;28;20024;-63
2021/10/19 08:51:44;;;;;;;16.08;9.77;;;;;;;12.40;82.24;98752.81;4995012;28;20554;-61
2021/10/19 08:54:09;;;;;;;14.27;9.63;;;;;;;12.42;86.89;98764.06;4993678;28;20073;-62
2021/10/19 08:56:41;;;;;;;18.08;10.05;;;;;;;12.18;84.79;98761.41;4993061;28;20121;-61
2021/10/19 08:59:09;;;;;;;15.55;9.95;;;;;;;12.33;84.96;98763.50;4993598;28;20429;-63
2021/10/19 09:01:40;;;;;;;19.88;10.15;;;;;;;12.87;84.89;98763.28;4994343;28;20037;-62
2021/10/19 09:04:11;;;;;;;15.30;9.88;;;;;;;12.85;85.32;98760.72;4991547;28;20026;-62
2021/10/19 09:06:38;;;;;;;14.38;9.50;;;;;;;12.29;83.51;98766.28;4993326;28;20046;-61
2021/10/19 09:09:09;;;;;;;13.98;8.40;;;;;;;13.08;82.79;98761.59;4992426;28;20026;-60
2021/10/19 09:11:38;;;;;;;18.33;10.20;;;;;;;13.35;87.22;98761.47;4993255;28;20046;-62
2021/10/19 09:14:03;;;;;;;15.77;10.05;;;;;;;12.69;83.16;98772.69;4993701;28;20034;-61
2021/10/19 09:16:56;;;;;;;16.02;9.80;;;;;;;12.99;82.50;98777.66;4989521;28;20038;-61
2021/10/19 09:19:21;;;;;;;;;;;;;;;12.95;82.24;98770.84;4992612;28;20128;-62
2021/10/19 09:21:51;;;;;;;16.48;10.55;;;;;;;13.30;83.81;98764.22;4995046;28;20012;-59
2021/10/19 09:24:18;;;;;;;15.15;9.82;;;;;;;12.88;81.56;98765.84;4994509;28;20064;-60
2021/10/19 09:27:16;;;;;;;16.52;9.63;;;;;;;12.87;83.98;98769.38;4993302;28;20044;-61
2021/10/19 09:29:49;;;;;;;15.68;10.20;;;;;;;13.41;81.91;98766.44;4986414;28;20038;-61
2021/10/19 09:32:15;;;;;;;15.35;10.15;;;;;;;14.01;80.04;98764.81;4991410;28;20133;-62
2021/10/19 09:34:45;;;;;;;14.52;9.82;;;;;;;13.07;83.19;98755.50;4995431;28;20038;-61
2021/10/19 09:37:17;;;;;;;15.02;10.25;;;;;;;13.39;81.80;98768.28;4992647;28;20042;-61
2021/10/19 09:39:48;;;;;;;15.48;10.32;;;;;;;13.82;83.44;98769.13;4991485;28;20679;-61
2021/10/19 09:42:22;;;;;;;14.18;9.38;;;;;;;13.50;83.39;98768.69;4991777;28;20062;-62
2021/10/19 09:44:53;;;;;;;13.40;9.15;;;;;;;13.62;82.96;98762.94;4993693;28;20023;-61
2021/10/19 09:47:19;;;;;;;14.02;9.00;;;;;;;14.19;80.41;98752.69;4992277;28;20039;-62
2021/10/19 09:49:46;;;;;;;14.77;9.93;;;;;;;14.57;77.45;98749.25;4991210;28;20036;-60
2021/10/19 09:52:12;;;;;;;15.50;9.65;;;;;;;14.89;77.56;98753.06;4991230;28;20038;-61
2021/10/19 09:54:39;;;;;;;15.35;9.85;;;;;;;13.29;80.46;98755.50;4992521;28;20023;-59
2021/10/19 09:57:04;;;;;;;12.88;9.38;;;;;;;13.68;80.10;98752.19;4991992;28;20109;-62
2021/10/19 09:59:30;;;;;;;12.15;8.48;;;;;;;14.02;79.66;98748.16;4993507;28;20109;-61
2021/10/19 10:01:57;;;;;;;14.20;9.45;;;;;;;14.48;80.65;98744.41;4992742;28;20038;-60
2021/10/19 10:04:24;;;;;;;15.35;9.63;;;;;;;14.29;78.73;98745.25;4992295;28;20022;-60
2021/10/19 10:06:49;;;;;;;15.45;9.23;;;;;;;14.30;79.46;98744.34;4993743;28;20986;-61
2021/10/19 10:09:16;;;;;;;15.32;8.93;;;;;;;13.97;80.91;98752.75;5000330;28;20096;-60
2021/10/19 10:11:41;;;;;;;13.88;8.65;;;;;;;14.74;81.12;98765.13;4994396;28;20093;-62
2021/10/19 10:14:07;;;;;;;12.85;8.88;;;;;;;14.33;81.22;98748.59;4992802;28;20031;-60
2021/10/19 10:16:47;;;;;;;17.70;8.63;;;;;;;14.94;80.68;98750.22;4990364;28;20042;-61
2021/10/19 10:19:18;;;;;;;15.00;8.63;;;;;;;15.10;78.30;98740.69;4990630;28;20026;-60
2021/10/19 10:21:47;;;;;;;12.13;8.60;;;;;;;14.74;79.31;98749.38;4990447;28;20042;-63
2021/10/19 10:24:12;;;;;;;13.27;8.45;;;;;;;14.61;80.97;98741.22;4991051;28;20061;-61
2021/10/19 10:26:39;;;;;;;12.20;8.27;;;;;;;14.42;81.07;98733.28;4991620;28;20068;-63
2021/10/19 10:29:13;;;;;;;12.82;8.32;;;;;;;14.75;80.17;98745.81;4992386;28;20026;-59
2021/10/19 10:31:53;;;;;;;14.70;8.90;;;;;;;14.91;81.80;98739.88;4993078;28;20086;-61
2021/10/19 10:34:32;;;;;;;14.57;8.68;;;;;;;14.45;83.35;98741.00;4992049;28;20033;-61
2021/10/19 10:37:11;;;;;;;13.20;8.45;;;;;;;14.45;83.74;98754.13;4989877;28;20049;-59
2021/10/19 10:39:43;;;;;;;12.20;8.57;;;;;;;14.58;82.29;98749.22;4988899;28;20840;-61
2021/10/19 10:42:10;;;;;;;13.90;8.85;;;;;;;14.58;82.35;98748.38;4991447;28;20042;-60
2021/10/19 10:44:41;;;;;;;12.40;9.00;;;;;;;14.58;83.10;98751.84;4990999;28;20097;-61
2021/10/19 10:47:08;;;;;;;13.40;8.38;;;;;;;14.31;84.63;98751.28;4991257;28;20065;-61
2021/10/19 10:49:34;;;;;;;16.52;9.55;;;;;;;14.77;81.87;98751.00;4992188;28;20030;-62
2021/10/19 10:52:02;;;;;;;14.23;9.57;;;;;;;14.00;83.54;98736.88;4990334;28;20598;-61
2021/10/19 10:54:28;;;;;;;14.95;9.35;;;;;;;14.09;83.39;98740.88;4992993;28;20088;-60
2021/10/19 10:56:55;;;;;;;15.27;9.38;;;;;;;14.24;82.47;98741.97;4987923;28;20030;-61
2021/10/19 10:59:28;;;;;;;13.30;9.38;;;;;;;14.26;82.92;98745.38;4991332;28;20034;-61
2021/10/19 11:02:06;;;;;;;12.35;8.90;;;;;;;13.93;84.32;98745.94;4988579;28;20046;-60
2021/10/19 11:04:32;;;;;;;16.15;9.93;;;;;;;13.71;85.03;98735.50;4993421;28;20106;-61
2021/10/19 11:06:58;;;;;;;14.90;8.93;;;;;;;14.14;84.46;98743.31;4990629;28;20083;-61
2021/10/19 11:09:28;;;;;;;18.00;9.60;;;;;;;14.34;83.46;98738.03;4990270;28;20030;-60
2021/10/19 11:11:58;;;;;;;16.42;9.23;;;;;;;14.00;83.59;98731.63;4991504;28;20043;-60
2021/10/19 11:14:25;;;;;;;19.40;9.82;;;;;;;13.92;86.41;98732.88;4992695;28;20076;-59
2021/10/19 11:16:54;;;;;;;14.73;9.40;;;;;;;14.62;82.90;98740.28;4990871;28;20128;-61
2021/10/19 11:19:27;;;;;;;15.80;9.73;;;;;;;14.39;84.45;98730.81;4990607;28;20077;-62
2021/10/19 11:22:05;;;;;;;16.60;9.55;;;;;;;14.70;82.26;98726.78;4987925;28;20045;-60